Time;durP1;ratioP1;P1;durP2;ratioP2;P2;SDS_P1;SDS_P2;PMS_P1;PMS_P2;Temp;Humidity;BMP_temperature;BMP_pressure;BME280_temperature;BME280_humidity;BME280_pressure;Samples;Min_cycle;Max_cycle;Signal;HPM_P1;HPM_P2
2022/11/06 00:01:36;;;;;;;12.70;8.43;;;;;;;;;;5080832;28;20032;-75
2022/11/06 00:04:02;;;;;;;15.77;10.77;;;;;;;;;;5082855;28;20036;-74
2022/11/06 00:06:46;;;;;;;13.10;8.90;;;;;;;;;;5078657;28;20578;-74
2022/11/06 00:09:13;;;;;;;12.90;6.88;;;;;;;;;;5085679;28;20120;-75
2022/11/06 00:11:40;;;;;;;14.90;8.70;;;;;;;;;;5076035;28;20071;-75
2022/11/06 00:14:06;;;;;;;14.43;8.77;;;;;;;;;;5080636;28;20039;-74
2022/11/06 00:16:32;;;;;;;11.77;8.25;;;;;;;;;;5076460;28;20029;-74
2022/11/06 00:19:01;;;;;;;14.68;8.82;;;;;;;;;;5070148;28;20024;-74
2022/11/06 00:21:28;;;;;;;11.32;6.60;;;;;;;;;;5080016;28;20107;-74
2022/11/06 00:23:55;;;;;;;11.18;7.13;;;;;;;;;;5086532;28;20036;-74
2022/11/06 00:26:22;;;;;;;20.80;14.82;;;;;;;;;;5082034;28;20039;-74
2022/11/06 00:28:49;;;;;;;14.40;9.60;;;;;;;;;;5080239;28;20036;-75
2022/11/06 00:31:16;;;;;;;18.48;10.68;;;;;;;;;;5079929;28;20386;-74
2022/11/06 00:33:43;;;;;;;14.88;6.80;;;;;;;;;;5083325;28;20020;-75
2022/11/06 00:36:13;;;;;;;10.80;6.93;;;;;;;;;;5079091;28;20104;-75
2022/11/06 00:38:39;;;;;;;12.07;7.10;;;;;;;;;;5082168;28;20604;-74
2022/11/06 00:41:06;;;;;;;11.88;6.85;;;;;;;;;;5071904;28;20028;-74
2022/11/06 00:43:32;;;;;;;9.95;6.22;;;;;;;;;;5074458;28;20108;-74
2022/11/06 00:46:05;;;;;;;12.75;8.88;;;;;;;;;;5083296;28;20115;-74
2022/11/06 00:48:31;;;;;;;11.93;6.45;;;;;;;;;;5085628;28;20030;-74
2022/11/06 00:51:04;;;;;;;10.57;6.30;;;;;;;;;;5085177;28;20036;-75
2022/11/06 00:53:30;;;;;;;8.57;4.65;;;;;;;;;;5086105;28;20032;-75
2022/11/06 00:56:03;;;;;;;11.63;6.65;;;;;;;;;;5083360;28;20036;-75
2022/11/06 00:58:29;;;;;;;11.82;6.82;;;;;;;;;;5076606;28;20016;-74
2022/11/06 01:00:55;;;;;;;12.60;7.07;;;;;;;;;;5079925;28;20078;-75
2022/11/06 01:03:21;;;;;;;10.40;5.43;;;;;;;;;;5084139;28;20222;-74
2022/11/06 01:05:46;;;;;;;11.18;6.53;;;;;;;;;;5079467;28;20469;-74
2022/11/06 01:08:12;;;;;;;13.52;7.45;;;;;;;;;;5083885;28;20036;-74
2022/11/06 01:10:38;;;;;;;11.57;5.60;;;;;;;;;;5080783;28;20551;-74
2022/11/06 01:13:04;;;;;;;12.05;5.60;;;;;;;;;;5078862;28;20025;-75
2022/11/06 01:15:31;;;;;;;11.93;5.68;;;;;;;;;;5076237;28;20060;-74
2022/11/06 01:17:57;;;;;;;12.02;5.85;;;;;;;;;;5074261;28;20133;-74
2022/11/06 01:20:22;;;;;;;12.32;6.70;;;;;;;;;;5076217;28;20488;-74
2022/11/06 01:22:48;;;;;;;15.40;7.57;;;;;;;;;;5082609;28;20035;-75
2022/11/06 01:25:14;;;;;;;10.10;5.28;;;;;;;;;;5084077;28;20075;-74
2022/11/06 01:27:40;;;;;;;10.40;5.95;;;;;;;;;;5081566;28;20032;-75
2022/11/06 01:30:07;;;;;;;11.27;5.30;;;;;;;;;;5079132;28;20036;-75
2022/11/06 01:32:33;;;;;;;8.85;3.65;;;;;;;;;;5077248;28;20634;-74
2022/11/06 01:34:59;;;;;;;6.97;4.05;;;;;;;;;;5081617;28;20107;-74
2022/11/06 01:37:25;;;;;;;9.23;4.45;;;;;;;;;;5085478;28;20157;-75
2022/11/06 01:39:51;;;;;;;8.02;3.70;;;;;;;;;;5090685;28;20032;-74
2022/11/06 01:42:19;;;;;;;8.25;3.53;;;;;;;;;;5078952;28;20037;-74
2022/11/06 01:45:04;;;;;;;7.88;4.70;;;;;;;;;;5079928;28;20093;-74
2022/11/06 01:47:30;;;;;;;8.70;4.65;;;;;;;;;;5073116;28;20068;-75
2022/11/06 01:49:59;;;;;;;6.63;3.65;;;;;;;;;;5078925;28;20517;-75
2022/11/06 01:52:26;;;;;;;4.82;2.63;;;;;;;;;;5089418;28;20032;-75
2022/11/06 01:54:54;;;;;;;8.00;4.10;;;;;;;;;;5091182;28;20036;-75
2022/11/06 01:57:20;;;;;;;8.40;4.30;;;;;;;;;;5091635;28;20027;-75
2022/11/06 01:59:46;;;;;;;6.53;3.22;;;;;;;;;;5089652;28;20081;-74
2022/11/06 02:02:14;;;;;;;7.13;3.58;;;;;;;;;;5087934;28;20408;-75
2022/11/06 02:04:44;;;;;;;8.23;4.97;;;;;;;;;;5088589;28;20485;-75
2022/11/06 02:07:11;;;;;;;9.77;4.38;;;;;;;;;;5078605;28;20028;-74
2022/11/06 02:09:37;;;;;;;8.05;4.03;;;;;;;;;;5083368;28;20032;-74
2022/11/06 02:12:28;;;;;;;8.27;4.00;;;;;;;;;;5083245;28;20036;-74
2022/11/06 02:14:54;;;;;;;7.93;3.75;;;;;;;;;;5081260;28;20720;-74
2022/11/06 02:17:43;;;;;;;8.30;4.82;;;;;;;;;;5075647;28;20032;-75
2022/11/06 02:20:16;;;;;;;8.70;4.63;;;;;;;;;;5073330;28;20048;-74
2022/11/06 02:22:51;;;;;;;9.48;5.53;;;;;;;;;;5090771;28;20044;-74
2022/11/06 02:25:17;;;;;;;8.18;4.40;;;;;;;;;;5084290;28;20032;-75
2022/11/06 02:27:44;;;;;;;9.07;6.25;;;;;;;;;;5089891;28;20058;-75
2022/11/06 02:30:12;;;;;;;9.80;5.45;;;;;;;;;;5082583;28;20040;-74
2022/11/06 02:32:41;;;;;;;14.57;5.13;;;;;;;;;;5085155;28;20043;-75
2022/11/06 02:35:16;;;;;;;10.77;6.40;;;;;;;;;;5083216;28;20032;-74
2022/11/06 02:37:44;;;;;;;10.07;4.68;;;;;;;;;;5077404;28;20030;-75
2022/11/06 02:40:11;;;;;;;8.07;4.32;;;;;;;;;;5086494;28;20034;-74
2022/11/06 02:42:39;;;;;;;8.80;5.25;;;;;;;;;;5083371;28;20385;-74
2022/11/06 02:45:07;;;;;;;8.98;4.10;;;;;;;;;;5082606;28;20047;-74
2022/11/06 02:47:34;;;;;;;8.02;4.03;;;;;;;;;;5080096;28;20117;-75
2022/11/06 02:50:04;;;;;;;9.10;4.28;;;;;;;;;;5079394;28;20115;-75
2022/11/06 02:52:32;;;;;;;7.13;3.55;;;;;;;;;;5074404;28;20166;-75
2022/11/06 02:55:02;;;;;;;7.03;3.80;;;;;;;;;;5083206;28;20031;-75
2022/11/06 02:57:31;;;;;;;6.95;4.03;;;;;;;;;;5082990;28;20050;-74
2022/11/06 02:59:57;;;;;;;8.50;4.60;;;;;;;;;;5083706;28;20051;-74
2022/11/06 03:02:27;;;;;;;15.35;4.07;;;;;;;;;;5085870;28;20028;-75
2022/11/06 03:04:58;;;;;;;7.10;3.90;;;;;;;;;;5085009;28;20040;-74
2022/11/06 03:07:30;;;;;;;9.27;3.83;;;;;;;;;;5087755;28;20031;-75
2022/11/06 03:09:57;;;;;;;6.95;2.85;;;;;;;;;;5087361;28;20085;-74
2022/11/06 03:12:24;;;;;;;7.03;2.03;;;;;;;;;;5078058;28;20032;-75
2022/11/06 03:14:56;;;;;;;8.57;3.97;;;;;;;;;;5071103;28;20029;-75
2022/11/06 03:17:22;;;;;;;;;;;;;;;;;;5088265;28;20883;-75
2022/11/06 03:19:55;;;;;;;7.50;3.25;;;;;;;;;;5073723;28;19948;-75
2022/11/06 03:22:42;;;;;;;7.35;3.58;;;;;;;;;;5080581;28;20052;-75
2022/11/06 03:25:14;;;;;;;6.90;3.65;;;;;;;;;;5088628;28;20046;-75
2022/11/06 03:27:40;;;;;;;;;;;;;;;;;;5086306;28;20028;-75
2022/11/06 03:30:06;;;;;;;7.32;3.28;;;;;;;;;;5081591;28;19920;-75
2022/11/06 03:32:38;;;;;;;6.70;3.80;;;;;;;;;;5081259;28;20032;-75
2022/11/06 03:35:11;;;;;;;6.65;3.40;;;;;;;;;;5083466;28;20028;-75
2022/11/06 03:37:44;;;;;;;5.35;3.28;;;;;;;;;;5088439;28;20050;-74
2022/11/06 03:40:13;;;;;;;7.25;3.72;;;;;;;;;;5078646;28;20145;-75
2022/11/06 03:42:40;;;;;;;6.15;3.55;;;;;;;;;;5096618;28;20385;-75
2022/11/06 03:45:08;;;;;;;8.82;3.80;;;;;;;;;;5089322;28;20564;-74
2022/11/06 03:47:37;;;;;;;5.80;3.30;;;;;;;;;;5083601;28;20063;-75
2022/11/06 03:50:09;;;;;;;7.30;3.47;;;;;;;;;;5082087;28;20123;-74
2022/11/06 03:52:40;;;;;;;6.78;3.42;;;;;;;;;;5083718;28;20032;-74
2022/11/06 03:55:13;;;;;;;6.55;3.35;;;;;;;;;;5081745;28;20496;-74
2022/11/06 03:57:50;;;;;;;6.63;3.58;;;;;;;;;;5074446;28;20024;-75
2022/11/06 04:00:19;;;;;;;11.55;4.03;;;;;;;;;;5078403;28;20036;-75
2022/11/06 04:02:48;;;;;;;7.25;3.90;;;;;;;;;;5080480;28;20143;-75
2022/11/06 04:05:21;;;;;;;7.55;4.03;;;;;;;;;;5084750;28;20151;-75
2022/11/06 04:16:10;;;;;;;6.47;3.45;;;;;;;;;;5084480;28;20169;-75
2022/11/06 04:18:37;;;;;;;7.10;3.83;;;;;;;;;;5078494;28;20031;-75
2022/11/06 04:21:21;;;;;;;8.20;3.70;;;;;;;;;;5083076;28;20141;-75
2022/11/06 04:26:55;;;;;;;10.20;3.85;;;;;;;;;;5078354;28;20039;-75
2022/11/06 04:29:31;;;;;;;11.48;4.07;;;;;;;;;;5082118;28;20044;-74
2022/11/06 04:32:07;;;;;;;7.72;4.65;;;;;;;;;;5088683;28;20040;-75
2022/11/06 04:34:42;;;;;;;6.80;3.45;;;;;;;;;;5077682;28;20032;-75
2022/11/06 04:37:17;;;;;;;7.95;4.22;;;;;;;;;;5085365;28;20035;-75
2022/11/06 04:40:02;;;;;;;7.72;4.85;;;;;;;;;;5080954;28;20104;-75
2022/11/06 04:42:46;;;;;;;8.40;4.90;;;;;;;;;;5086568;28;20680;-75
2022/11/06 04:45:41;;;;;;;7.35;3.88;;;;;;;;;;5074406;28;20490;-75
2022/11/06 04:48:08;;;;;;;10.20;4.45;;;;;;;;;;5062861;28;20098;-74
2022/11/06 04:50:42;;;;;;;9.25;4.20;;;;;;;;;;5088704;28;20115;-75
2022/11/06 04:53:10;;;;;;;6.30;3.38;;;;;;;;;;5080321;28;20040;-75
2022/11/06 04:55:47;;;;;;;9.82;3.55;;;;;;;;;;5075238;28;20060;-75
2022/11/06 04:58:13;;;;;;;6.57;3.22;;;;;;;;;;5077264;28;20106;-74
2022/11/06 05:00:40;;;;;;;8.20;4.28;;;;;;;;;;5083071;28;20177;-75
2022/11/06 05:03:06;;;;;;;7.03;3.72;;;;;;;;;;5082846;28;20043;-74
2022/11/06 05:05:32;;;;;;;9.95;4.00;;;;;;;;;;5084395;28;20067;-75
2022/11/06 05:07:58;;;;;;;6.28;3.22;;;;;;;;;;5074421;28;20060;-75
2022/11/06 05:10:24;;;;;;;7.10;3.45;;;;;;;;;;5071625;28;20684;-75
2022/11/06 05:12:50;;;;;;;7.93;3.78;;;;;;;;;;5084737;28;20036;-74
2022/11/06 05:15:16;;;;;;;7.45;3.75;;;;;;;;;;5082623;28;20030;-74
2022/11/06 05:17:42;;;;;;;7.68;3.83;;;;;;;;;;5092274;28;20114;-75
2022/11/06 05:20:08;;;;;;;5.82;3.00;;;;;;;;;;5085288;28;20054;-74
2022/11/06 05:25:19;;;;;;;6.55;2.92;;;;;;;;;;5087459;28;20035;-75
2022/11/06 05:27:45;;;;;;;5.78;2.92;;;;;;;;;;5081431;28;20032;-74
2022/11/06 05:30:11;;;;;;;7.35;2.72;;;;;;;;;;5076960;28;20371;-75
2022/11/06 05:32:37;;;;;;;6.13;2.63;;;;;;;;;;5090727;28;20106;-75
2022/11/06 05:35:03;;;;;;;5.60;3.13;;;;;;;;;;5084252;28;20442;-75
2022/11/06 05:37:29;;;;;;;6.65;2.80;;;;;;;;;;5087650;28;20034;-75
2022/11/06 05:39:55;;;;;;;8.63;2.65;;;;;;;;;;5091632;28;20110;-75
2022/11/06 05:42:21;;;;;;;6.70;2.90;;;;;;;;;;5089349;28;20032;-75
2022/11/06 05:44:47;;;;;;;5.65;2.55;;;;;;;;;;5086653;28;20489;-75
2022/11/06 05:47:13;;;;;;;5.88;2.05;;;;;;;;;;5089491;28;20044;-75
2022/11/06 05:49:39;;;;;;;5.68;2.33;;;;;;;;;;5080539;28;20036;-75
2022/11/06 05:52:05;;;;;;;4.15;1.75;;;;;;;;;;5086282;28;20382;-75
2022/11/06 05:54:31;;;;;;;4.53;1.95;;;;;;;;;;5088539;28;20016;-75
2022/11/06 05:56:57;;;;;;;6.57;2.45;;;;;;;;;;5085494;28;20032;-74
2022/11/06 05:59:23;;;;;;;6.03;3.45;;;;;;;;;;5078975;28;20446;-75
2022/11/06 06:01:49;;;;;;;6.10;3.70;;;;;;;;;;5085388;28;20204;-75
2022/11/06 06:04:15;;;;;;;6.72;3.17;;;;;;;;;;5080050;28;20059;-75
2022/11/06 06:06:41;;;;;;;6.28;3.67;;;;;;;;;;5085953;28;20307;-74
2022/11/06 06:09:07;;;;;;;7.95;3.40;;;;;;;;;;5084535;28;20611;-75
2022/11/06 06:11:33;;;;;;;5.65;2.83;;;;;;;;;;5087336;28;20381;-75
2022/11/06 06:14:00;;;;;;;6.10;2.80;;;;;;;;;;5085191;28;20492;-75
2022/11/06 06:16:26;;;;;;;5.35;2.22;;;;;;;;;;5077507;28;20029;-75
2022/11/06 06:18:52;;;;;;;5.22;2.70;;;;;;;;;;5090269;28;20043;-74
2022/11/06 06:21:18;;;;;;;8.65;3.42;;;;;;;;;;5084724;28;20024;-75
2022/11/06 06:23:44;;;;;;;4.88;2.50;;;;;;;;;;5091958;28;20488;-74
2022/11/06 06:26:10;;;;;;;9.43;3.63;;;;;;;;;;5074037;28;20073;-75
2022/11/06 06:28:36;;;;;;;6.10;2.42;;;;;;;;;;5086661;28;20473;-75
2022/11/06 06:31:06;;;;;;;8.02;3.35;;;;;;;;;;5084369;28;20033;-75
2022/11/06 06:33:32;;;;;;;6.35;2.97;;;;;;;;;;5083554;28;20028;-75
2022/11/06 06:35:58;;;;;;;8.77;4.28;;;;;;;;;;5084779;28;20551;-75
2022/11/06 06:38:25;;;;;;;9.82;4.95;;;;;;;;;;5083183;28;20021;-75
2022/11/06 06:40:52;;;;;;;8.88;5.07;;;;;;;;;;5087500;28;20479;-75
2022/11/06 06:43:18;;;;;;;10.10;4.93;;;;;;;;;;5082298;28;20034;-75
2022/11/06 06:45:44;;;;;;;11.98;4.82;;;;;;;;;;5088033;28;20035;-75
2022/11/06 06:48:10;;;;;;;9.45;4.80;;;;;;;;;;5080879;28;20078;-75
2022/11/06 06:50:37;;;;;;;8.27;4.70;;;;;;;;;;5085447;28;20394;-75
2022/11/06 06:53:03;;;;;;;7.43;4.32;;;;;;;;;;5082854;28;20047;-75
2022/11/06 06:55:29;;;;;;;9.75;5.50;;;;;;;;;;5084411;28;20512;-74
2022/11/06 06:57:56;;;;;;;8.23;3.78;;;;;;;;;;5083437;28;20127;-75
2022/11/06 07:00:22;;;;;;;8.48;4.65;;;;;;;;;;5076554;28;20041;-75
2022/11/06 07:02:48;;;;;;;7.50;4.25;;;;;;;;;;5085913;28;20035;-75
2022/11/06 07:05:14;;;;;;;8.95;4.70;;;;;;;;;;5079158;28;20469;-75
2022/11/06 07:07:40;;;;;;;8.77;4.22;;;;;;;;;;5075728;28;20027;-75
2022/11/06 07:10:06;;;;;;;6.68;3.95;;;;;;;;;;5074751;28;20048;-75
2022/11/06 07:12:32;;;;;;;9.57;4.50;;;;;;;;;;5074133;28;20054;-74
2022/11/06 07:14:58;;;;;;;8.38;4.10;;;;;;;;;;5083562;28;20028;-75
2022/11/06 07:17:24;;;;;;;10.80;4.50;;;;;;;;;;5083422;28;20031;-74
2022/11/06 07:19:50;;;;;;;8.05;3.83;;;;;;;;;;5089886;28;20028;-74
2022/11/06 07:22:16;;;;;;;7.68;4.57;;;;;;;;;;5086923;28;20744;-75
2022/11/06 07:24:42;;;;;;;9.70;4.80;;;;;;;;;;5086206;28;20149;-75
2022/11/06 07:27:08;;;;;;;10.25;6.53;;;;;;;;;;5085213;28;20103;-75
2022/11/06 07:29:34;;;;;;;8.43;4.75;;;;;;;;;;5082387;28;20032;-75
2022/11/06 07:32:00;;;;;;;7.60;4.22;;;;;;;;;;5081686;28;20089;-74
2022/11/06 07:34:26;;;;;;;7.10;4.40;;;;;;;;;;5083618;28;20032;-75
2022/11/06 07:36:53;;;;;;;10.00;5.00;;;;;;;;;;5095501;28;20167;-75
2022/11/06 07:39:19;;;;;;;7.95;4.65;;;;;;;;;;5075306;28;20025;-75
2022/11/06 07:41:45;;;;;;;9.75;5.95;;;;;;;;;;5073722;28;20036;-75
2022/11/06 07:44:11;;;;;;;11.60;6.18;;;;;;;;;;5082203;28;20461;-75
2022/11/06 07:46:37;;;;;;;12.68;7.18;;;;;;;;;;5089021;28;20052;-75
2022/11/06 07:49:03;;;;;;;11.27;6.97;;;;;;;;;;5084739;28;20039;-75
2022/11/06 07:51:29;;;;;;;11.88;7.80;;;;;;;;;;5081287;28;20100;-75
2022/11/06 07:53:55;;;;;;;10.35;6.47;;;;;;;;;;5080265;28;20070;-75
2022/11/06 07:56:21;;;;;;;11.25;6.35;;;;;;;;;;5081155;28;20269;-75
2022/11/06 07:58:47;;;;;;;11.48;6.40;;;;;;;;;;5085420;28;20448;-75
2022/11/06 08:01:14;;;;;;;13.10;7.32;;;;;;;;;;5079405;28;20039;-75
2022/11/06 08:03:40;;;;;;;16.83;9.43;;;;;;;;;;5078500;28;20101;-75
2022/11/06 08:06:06;;;;;;;17.00;12.30;;;;;;;;;;5087426;28;20063;-75
2022/11/06 08:08:32;;;;;;;14.77;11.15;;;;;;;;;;5075631;28;20024;-75
2022/11/06 08:11:02;;;;;;;17.27;11.80;;;;;;;;;;5074345;28;20036;-75
2022/11/06 08:13:28;;;;;;;14.32;10.60;;;;;;;;;;5080245;28;20700;-75
2022/11/06 08:15:54;;;;;;;16.58;11.98;;;;;;;;;;5082027;28;20036;-75
2022/11/06 08:18:20;;;;;;;20.38;13.10;;;;;;;;;;5084306;28;20036;-75
2022/11/06 08:20:46;;;;;;;17.48;13.27;;;;;;;;;;5079565;28;20028;-75
2022/11/06 08:23:13;;;;;;;17.02;13.35;;;;;;;;;;5083062;28;20040;-74
2022/11/06 08:25:39;;;;;;;16.17;11.52;;;;;;;;;;5073070;28;20136;-75
2022/11/06 08:28:05;;;;;;;14.32;10.68;;;;;;;;;;5078595;28;20036;-75
2022/11/06 08:30:31;;;;;;;12.30;8.02;;;;;;;;;;5081592;28;20035;-75
2022/11/06 08:33:05;;;;;;;12.88;7.55;;;;;;;;;;5082838;28;20044;-75
2022/11/06 08:35:33;;;;;;;8.43;5.20;;;;;;;;;;5081804;28;20115;-75
2022/11/06 08:37:59;;;;;;;8.10;4.38;;;;;;;;;;5079626;28;20039;-75
2022/11/06 08:40:25;;;;;;;8.18;4.70;;;;;;;;;;5082688;28;20024;-75
2022/11/06 08:42:51;;;;;;;11.30;5.63;;;;;;;;;;5081185;28;20126;-75
2022/11/06 08:45:17;;;;;;;10.32;5.22;;;;;;;;;;5084264;28;20036;-75
2022/11/06 08:47:43;;;;;;;10.20;5.10;;;;;;;;;;5080491;28;20607;-75
2022/11/06 08:50:09;;;;;;;7.32;4.68;;;;;;;;;;5083315;28;20183;-75
2022/11/06 08:52:35;;;;;;;11.38;5.28;;;;;;;;;;5083920;28;20040;-75
2022/11/06 08:55:01;;;;;;;11.05;6.43;;;;;;;;;;5086734;28;20394;-75
2022/11/06 08:57:27;;;;;;;10.23;6.32;;;;;;;;;;5079765;28;20064;-75
2022/11/06 08:59:53;;;;;;;14.15;9.40;;;;;;;;;;5088516;28;20447;-74
2022/11/06 09:02:19;;;;;;;9.52;6.35;;;;;;;;;;5082034;28;20028;-75
2022/11/06 09:04:45;;;;;;;9.13;5.78;;;;;;;;;;5085592;28;20122;-75
2022/11/06 09:07:11;;;;;;;6.43;3.47;;;;;;;;;;5089653;28;20393;-75
2022/11/06 09:09:37;;;;;;;11.23;4.60;;;;;;;;;;5093835;28;20035;-75
2022/11/06 09:12:03;;;;;;;9.07;3.65;;;;;;;;;;5081708;28;20819;-75
2022/11/06 09:14:29;;;;;;;8.30;4.25;;;;;;;;;;5069218;28;20691;-75
2022/11/06 09:16:55;;;;;;;9.13;4.78;;;;;;;;;;5083856;28;20579;-75
2022/11/06 09:19:21;;;;;;;7.65;4.43;;;;;;;;;;5087874;28;20035;-75
2022/11/06 09:21:47;;;;;;;8.38;5.47;;;;;;;;;;5086684;28;20472;-74
2022/11/06 09:24:13;;;;;;;8.00;4.07;;;;;;;;;;5089005;28;20028;-75
2022/11/06 09:26:39;;;;;;;5.88;3.20;;;;;;;;;;5088482;28;20032;-75
2022/11/06 09:29:05;;;;;;;7.07;2.90;;;;;;;;;;5090512;28;20449;-74
2022/11/06 09:31:31;;;;;;;4.25;2.25;;;;;;;;;;5088755;28;20135;-75
2022/11/06 09:33:57;;;;;;;7.32;3.67;;;;;;;;;;5085902;28;20808;-75
2022/11/06 09:36:23;;;;;;;5.65;2.63;;;;;;;;;;5091075;28;20024;-74
2022/11/06 09:38:49;;;;;;;4.75;2.40;;;;;;;;;;5072901;28;20488;-75
2022/11/06 09:41:19;;;;;;;4.90;2.58;;;;;;;;;;5083133;28;20032;-75
2022/11/06 09:43:47;;;;;;;3.58;1.40;;;;;;;;;;5090855;28;20111;-74
2022/11/06 09:46:27;;;;;;;2.85;1.23;;;;;;;;;;5090046;28;20032;-75
2022/11/06 09:48:59;;;;;;;2.60;1.00;;;;;;;;;;5081853;28;20036;-75
2022/11/06 09:51:28;;;;;;;2.15;1.00;;;;;;;;;;5083703;28;20043;-75
2022/11/06 09:53:58;;;;;;;6.03;3.05;;;;;;;;;;5079186;28;20044;-75
2022/11/06 09:56:28;;;;;;;5.15;2.55;;;;;;;;;;5080245;28;20028;-74
2022/11/06 09:58:55;;;;;;;11.50;4.47;;;;;;;;;;5088055;28;20039;-75
2022/11/06 10:01:35;;;;;;;9.45;4.72;;;;;;;;;;5082993;28;20075;-75
2022/11/06 10:04:02;;;;;;;4.78;2.08;;;;;;;;;;5083518;28;20028;-75
2022/11/06 10:06:28;;;;;;;4.05;1.67;;;;;;;;;;5090827;28;20028;-75
2022/11/06 10:09:00;;;;;;;4.53;2.00;;;;;;;;;;5087756;28;20135;-75
2022/11/06 10:11:32;;;;;;;6.25;1.92;;;;;;;;;;5086803;28;20036;-75
2022/11/06 10:14:13;;;;;;;4.50;1.70;;;;;;;;;;5084010;28;20032;-75
2022/11/06 10:16:39;;;;;;;3.35;1.15;;;;;;;;;;5080269;28;20036;-75
2022/11/06 10:19:21;;;;;;;4.85;1.50;;;;;;;;;;5090603;28;21065;-75
2022/11/06 10:21:48;;;;;;;4.25;1.60;;;;;;;;;;5082163;28;20082;-75
2022/11/06 10:24:20;;;;;;;3.60;1.58;;;;;;;;;;5083975;28;20020;-75
2022/11/06 10:26:51;;;;;;;3.75;1.67;;;;;;;;;;5088502;28;20040;-75
2022/11/06 10:29:22;;;;;;;4.53;2.05;;;;;;;;;;5084349;28;20521;-75
2022/11/06 10:31:55;;;;;;;6.38;2.08;;;;;;;;;;5081408;28;20481;-74
2022/11/06 10:34:27;;;;;;;5.90;2.15;;;;;;;;;;5085117;28;20031;-75
2022/11/06 10:36:59;;;;;;;3.95;1.70;;;;;;;;;;5089157;28;20063;-75
2022/11/06 10:39:28;;;;;;;4.18;1.60;;;;;;;;;;5081606;28;20111;-75
2022/11/06 10:41:57;;;;;;;3.92;1.90;;;;;;;;;;5088710;28;20075;-75
2022/11/06 10:44:25;;;;;;;3.72;1.80;;;;;;;;;;5081889;28;20043;-75
2022/11/06 10:46:53;;;;;;;4.82;1.15;;;;;;;;;;5085165;28;20058;-75
2022/11/06 10:49:22;;;;;;;2.83;1.30;;;;;;;;;;5079301;28;20031;-75
2022/11/06 10:51:58;;;;;;;3.72;1.52;;;;;;;;;;5079140;28;20111;-75
2022/11/06 10:54:30;;;;;;;3.83;1.73;;;;;;;;;;5078190;28;20035;-75
2022/11/06 10:56:59;;;;;;;5.40;2.28;;;;;;;;;;5077799;28;20032;-75
2022/11/06 10:59:25;;;;;;;6.28;4.38;;;;;;;;;;5082034;28;20094;-75
2022/11/06 11:01:51;;;;;;;8.30;3.72;;;;;;;;;;5077319;28;20468;-74
2022/11/06 11:04:17;;;;;;;7.28;4.05;;;;;;;;;;5080572;28;20504;-75
2022/11/06 11:06:43;;;;;;;7.63;3.80;;;;;;;;;;5083424;28;20032;-75
2022/11/06 11:09:35;;;;;;;7.43;2.70;;;;;;;;;;5079761;28;20055;-75
2022/11/06 11:12:01;;;;;;;4.15;1.80;;;;;;;;;;5078436;28;20133;-75
2022/11/06 11:14:28;;;;;;;4.28;1.75;;;;;;;;;;5082016;28;20346;-74
2022/11/06 11:16:55;;;;;;;4.03;1.98;;;;;;;;;;5089644;28;20207;-75
2022/11/06 11:19:25;;;;;;;5.07;3.22;;;;;;;;;;5076853;28;20111;-74
2022/11/06 11:21:53;;;;;;;5.40;2.40;;;;;;;;;;5078852;28;20032;-75
2022/11/06 11:24:19;;;;;;;6.47;1.85;;;;;;;;;;5081209;28;20029;-74
2022/11/06 11:27:08;;;;;;;5.38;1.88;;;;;;;;;;5082380;28;20020;-75
2022/11/06 11:29:46;;;;;;;4.32;1.48;;;;;;;;;;5070103;28;20089;-75
2022/11/06 11:32:17;;;;;;;3.90;1.75;;;;;;;;;;5077289;28;20073;-75
2022/11/06 11:34:45;;;;;;;3.85;1.58;;;;;;;;;;5079425;28;20036;-74
2022/11/06 11:37:22;;;;;;;3.50;1.60;;;;;;;;;;5075398;28;20028;-75
2022/11/06 11:39:48;;;;;;;3.55;1.67;;;;;;;;;;5079226;28;20111;-75
2022/11/06 11:42:22;;;;;;;4.82;1.73;;;;;;;;;;5084200;28;20541;-75
2022/11/06 11:45:07;;;;;;;6.05;1.92;;;;;;;;;;5079694;28;20857;-74
2022/11/06 11:47:33;;;;;;;5.13;1.73;;;;;;;;;;5079825;28;20401;-75
2022/11/06 11:50:16;;;;;;;3.63;1.58;;;;;;;;;;5078914;28;20134;-75
2022/11/06 11:52:46;;;;;;;3.78;2.00;;;;;;;;;;5083894;28;20039;-75
2022/11/06 11:55:22;;;;;;;4.18;1.45;;;;;;;;;;5082878;28;20909;-75
2022/11/06 11:57:50;;;;;;;3.47;1.65;;;;;;;;;;5076583;28;20073;-74
2022/11/06 12:00:17;;;;;;;4.80;1.70;;;;;;;;;;5075020;28;20036;-74
2022/11/06 12:02:45;;;;;;;3.88;1.20;;;;;;;;;;5079783;28;20047;-75
2022/11/06 12:05:16;;;;;;;3.65;1.10;;;;;;;;;;5088094;28;20040;-75
2022/11/06 12:07:51;;;;;;;2.97;1.10;;;;;;;;;;5081600;28;20040;-74
2022/11/06 12:10:29;;;;;;;3.38;0.77;;;;;;;;;;5080846;28;20041;-75
2022/11/06 12:12:55;;;;;;;8.38;5.30;;;;;;;;;;5084621;28;20043;-75
2022/11/06 12:15:24;;;;;;;3.05;1.20;;;;;;;;;;5089964;28;20055;-74
2022/11/06 12:17:52;;;;;;;5.07;2.78;;;;;;;;;;5077642;28;20048;-75
2022/11/06 12:20:21;;;;;;;7.55;3.45;;;;;;;;;;5087845;28;20116;-74
2022/11/06 12:22:49;;;;;;;6.70;3.00;;;;;;;;;;5079856;28;20032;-75
2022/11/06 12:25:18;;;;;;;8.85;3.15;;;;;;;;;;5075828;28;20048;-74
2022/11/06 12:27:47;;;;;;;3.40;1.25;;;;;;;;;;5083707;28;20027;-75
2022/11/06 12:30:17;;;;;;;3.40;1.23;;;;;;;;;;5082170;28;20796;-75
2022/11/06 12:32:52;;;;;;;3.70;1.42;;;;;;;;;;5080382;28;20490;-75
2022/11/06 12:35:22;;;;;;;3.20;1.08;;;;;;;;;;5080841;28;20028;-74
2022/11/06 12:38:06;;;;;;;2.97;1.00;;;;;;;;;;5079796;28;20033;-75
2022/11/06 12:40:38;;;;;;;5.97;2.55;;;;;;;;;;5081169;28;20089;-75
2022/11/06 12:43:20;;;;;;;2.67;1.10;;;;;;;;;;5084466;28;20020;-74
2022/11/06 12:45:46;;;;;;;6.20;2.90;;;;;;;;;;5078061;28;20035;-75
2022/11/06 12:48:15;;;;;;;3.22;1.17;;;;;;;;;;5082631;28;20075;-75
2022/11/06 12:50:44;;;;;;;3.45;1.60;;;;;;;;;;5080525;28;20488;-74
2022/11/06 12:53:31;;;;;;;3.50;1.27;;;;;;;;;;5082901;28;20032;-75
2022/11/06 12:56:08;;;;;;;3.97;1.52;;;;;;;;;;5078108;28;20104;-75
2022/11/06 12:59:00;;;;;;;2.88;1.20;;;;;;;;;;5078558;28;20024;-74
2022/11/06 13:01:26;;;;;;;;;;;;;;;;;;5078705;28;20578;-74
2022/11/06 13:03:58;;;;;;;3.60;1.40;;;;;;;;;;5076661;28;20030;-74
2022/11/06 13:06:43;;;;;;;4.38;1.35;;;;;;;;;;5084173;28;20024;-75
2022/11/06 13:09:14;;;;;;;5.07;1.75;;;;;;;;;;5079298;28;20037;-75
2022/11/06 13:11:49;;;;;;;5.15;1.40;;;;;;;;;;5082926;28;20032;-75
2022/11/06 13:14:15;;;;;;;4.18;1.75;;;;;;;;;;5082670;28;20025;-75
2022/11/06 13:17:00;;;;;;;4.25;1.80;;;;;;;;;;5076812;28;20036;-75
2022/11/06 13:19:32;;;;;;;7.53;2.78;;;;;;;;;;5088215;28;20030;-74
2022/11/06 13:22:07;;;;;;;4.10;1.50;;;;;;;;;;5088809;28;20488;-75
2022/11/06 13:24:36;;;;;;;4.80;1.20;;;;;;;;;;5078695;28;20020;-75
2022/11/06 13:27:13;;;;;;;3.70;1.30;;;;;;;;;;5080233;28;20043;-75
2022/11/06 13:29:40;;;;;;;5.05;1.42;;;;;;;;;;5081629;28;20028;-75
2022/11/06 13:32:11;;;;;;;5.68;1.25;;;;;;;;;;5080325;28;20483;-75
2022/11/06 13:34:38;;;;;;;5.70;1.73;;;;;;;;;;5082606;28;20023;-74
2022/11/06 13:37:30;;;;;;;4.47;1.30;;;;;;;;;;5091557;28;20089;-75
2022/11/06 13:40:05;;;;;;;3.53;1.10;;;;;;;;;;5082878;28;20048;-74
2022/11/06 13:42:39;;;;;;;3.65;1.27;;;;;;;;;;5084432;28;20467;-75
2022/11/06 13:45:07;;;;;;;2.38;0.85;;;;;;;;;;5085803;28;20032;-74
2022/11/06 13:47:42;;;;;;;4.00;1.52;;;;;;;;;;5088499;28;20036;-75
2022/11/06 13:50:21;;;;;;;4.57;1.42;;;;;;;;;;5086411;28;20040;-75
2022/11/06 13:52:47;;;;;;;5.25;1.30;;;;;;;;;;5081482;28;20366;-75
2022/11/06 13:55:16;;;;;;;4.55;1.30;;;;;;;;;;5078644;28;20065;-74
2022/11/06 13:58:00;;;;;;;4.22;1.58;;;;;;;;;;5093178;28;20089;-75
2022/11/06 14:00:45;;;;;;;4.57;1.92;;;;;;;;;;5087597;28;20036;-74
2022/11/06 14:03:11;;;;;;;5.93;2.63;;;;;;;;;;5083464;28;20043;-74
2022/11/06 14:05:49;;;;;;;6.75;2.28;;;;;;;;;;5078278;28;20454;-75
2022/11/06 14:08:21;;;;;;;3.90;1.60;;;;;;;;;;5087419;28;20473;-74
2022/11/06 14:11:10;;;;;;;4.85;1.73;;;;;;;;;;5091273;28;20042;-75
2022/11/06 14:13:36;;;;;;;3.97;1.48;;;;;;;;;;5076135;28;20041;-75
2022/11/06 14:16:07;;;;;;;5.47;1.23;;;;;;;;;;5077486;28;20040;-75
2022/11/06 14:18:33;;;;;;;3.83;1.13;;;;;;;;;;5086038;28;20056;-75
2022/11/06 14:21:18;;;;;;;3.92;1.27;;;;;;;;;;5084220;28;20103;-75
2022/11/06 14:23:45;;;;;;;3.97;1.58;;;;;;;;;;5083427;28;20032;-75
2022/11/06 14:26:12;;;;;;;2.97;1.13;;;;;;;;;;5083150;28;20040;-75
2022/11/06 14:28:42;;;;;;;5.38;1.40;;;;;;;;;;5082085;28;20473;-75
2022/11/06 14:31:09;;;;;;;3.90;1.20;;;;;;;;;;5075737;28;20036;-74
2022/11/06 14:33:41;;;;;;;3.70;1.23;;;;;;;;;;5082071;28;20025;-74
2022/11/06 14:36:25;;;;;;;3.70;1.35;;;;;;;;;;5085926;28;20036;-74
2022/11/06 14:38:52;;;;;;;3.22;1.15;;;;;;;;;;5082690;28;20773;-75
2022/11/06 14:41:33;;;;;;;4.90;1.52;;;;;;;;;;5080127;28;20028;-75
2022/11/06 14:44:06;;;;;;;5.75;1.40;;;;;;;;;;5084463;28;20033;-74
2022/11/06 14:46:33;;;;;;;5.82;3.40;;;;;;;;;;5084271;28;20538;-74
2022/11/06 14:49:11;;;;;;;5.57;2.45;;;;;;;;;;5079495;28;20527;-75
2022/11/06 14:51:37;;;;;;;7.95;2.97;;;;;;;;;;5080410;28;20028;-74
2022/11/06 14:54:14;;;;;;;4.80;2.35;;;;;;;;;;5083623;28;20370;-75
2022/11/06 14:56:40;;;;;;;4.60;2.20;;;;;;;;;;5079406;28;20074;-74
2022/11/06 14:59:08;;;;;;;6.15;2.83;;;;;;;;;;5081184;28;20066;-75
2022/11/06 15:01:35;;;;;;;6.78;2.60;;;;;;;;;;5081802;28;20028;-74
2022/11/06 15:04:05;;;;;;;5.80;2.58;;;;;;;;;;5086517;28;20785;-75
2022/11/06 15:06:31;;;;;;;7.97;2.92;;;;;;;;;;5077868;28;20031;-74
2022/11/06 15:09:03;;;;;;;5.90;2.80;;;;;;;;;;5076169;28;20427;-75